Time;durP1;ratioP1;P1;durP2;ratioP2;P2;SDS_P1;SDS_P2;PMS_P1;PMS_P2;Temp;Humidity;BMP_temperature;BMP_pressure;BME280_temperature;BME280_humidity;BME280_pressure;Samples;Min_cycle;Max_cycle;Signal;HPM_P1;HPM_P2
2022/09/03 00:00:00;;;;;;;4.65;1.10;;;21.40;76.70;;;;;;6274282;28;20041;-80
2022/09/03 00:03:08;;;;;;;3.25;0.93;;;21.40;77.30;;;;;;6251344;28;20051;-80
2022/09/03 00:06:11;;;;;;;;;;;21.30;77.50;;;;;;6252548;28;20049;-80
2022/09/03 00:09:16;;;;;;;3.20;0.70;;;21.30;78.10;;;;;;6266407;28;19927;-80
2022/09/03 00:12:23;;;;;;;5.00;1.08;;;21.10;78.50;;;;;;6301213;28;20531;-79
2022/09/03 00:15:27;;;;;;;1.53;0.77;;;21.00;78.90;;;;;;6301259;28;20056;-80
2022/09/03 00:18:33;;;;;;;2.97;1.20;;;21.00;79.50;;;;;;6271534;28;20049;-80
2022/09/03 00:21:40;;;;;;;2.10;1.30;;;20.90;80.10;;;;;;6276193;28;20080;-80
2022/09/03 00:24:59;;;;;;;2.60;1.08;;;20.80;80.40;;;;;;6277116;28;20045;-80
2022/09/03 00:28:06;;;;;;;1.88;0.90;;;20.90;81.00;;;;;;6295510;28;20064;-80
2022/09/03 00:31:17;;;;;;;6.07;1.27;;;20.80;82.20;;;;;;6300728;28;20056;-80
2022/09/03 00:34:25;;;;;;;3.38;1.00;;;20.80;82.30;;;;;;6301632;28;20045;-80
2022/09/03 00:37:28;;;;;;;2.95;1.33;;;20.70;82.90;;;;;;6300113;28;20041;-80
2022/09/03 00:40:59;;;;;;;3.60;1.42;;;20.60;83.60;;;;;;6302448;28;20056;-81
2022/09/03 00:44:23;;;;;;;1.98;1.20;;;20.60;84.30;;;;;;6299628;28;20060;-79
2022/09/03 00:47:34;;;;;;;2.10;1.40;;;20.50;85.30;;;;;;6303214;28;20697;-79
2022/09/03 00:50:46;;;;;;;1.90;1.05;;;20.50;86.10;;;;;;6309167;28;20430;-79
2022/09/03 00:53:56;;;;;;;6.03;1.17;;;20.40;86.60;;;;;;6298294;28;20139;-79
2022/09/03 00:57:09;;;;;;;3.05;1.50;;;20.30;88.00;;;;;;6292758;28;20426;-79
2022/09/03 01:00:13;;;;;;;2.53;1.33;;;20.10;88.80;;;;;;6266163;28;20060;-81
2022/09/03 01:03:28;;;;;;;5.70;1.27;;;20.10;90.10;;;;;;6276762;28;20135;-80
2022/09/03 01:06:37;;;;;;;1.73;1.10;;;19.80;90.40;;;;;;6290429;28;20044;-80
2022/09/03 01:09:50;;;;;;;4.28;1.45;;;19.60;91.20;;;;;;6301019;28;20048;-81
2022/09/03 01:12:57;;;;;;;5.25;1.83;;;19.50;91.70;;;;;;6303981;28;20068;-79
2022/09/03 01:16:09;;;;;;;2.17;0.98;;;19.40;92.10;;;;;;6306339;28;20045;-80
2022/09/03 01:19:34;;;;;;;4.47;1.75;;;19.40;92.50;;;;;;6301107;28;20045;-80
2022/09/03 01:23:00;;;;;;;4.20;1.52;;;19.30;93.10;;;;;;6302536;28;20049;-80
2022/09/03 01:26:22;;;;;;;4.00;1.35;;;19.20;93.70;;;;;;6301832;28;20566;-80
2022/09/03 01:29:34;;;;;;;2.63;1.25;;;19.10;93.90;;;;;;6304365;28;20044;-81
2022/09/03 01:32:45;;;;;;;1.33;1.17;;;19.00;94.20;;;;;;6305690;28;20048;-81
2022/09/03 01:35:48;;;;;;;4.65;1.65;;;19.00;94.40;;;;;;6304034;28;20417;-80
2022/09/03 01:38:55;;;;;;;19.48;1.90;;;19.00;94.80;;;;;;6303730;28;20163;-80
2022/09/03 01:42:15;;;;;;;2.55;1.60;;;19.10;95.00;;;;;;6303817;28;20720;-79
2022/09/03 01:45:36;;;;;;;4.03;1.33;;;19.10;95.20;;;;;;6304146;28;20122;-79
2022/09/03 01:48:45;;;;;;;2.97;1.52;;;19.10;95.30;;;;;;6304689;28;20440;-80
2022/09/03 01:51:47;;;;;;;2.95;1.23;;;19.10;95.40;;;;;;6306688;28;20040;-79
2022/09/03 01:55:00;;;;;;;3.70;1.30;;;19.10;95.70;;;;;;6307477;28;20045;-79
2022/09/03 01:58:08;;;;;;;3.35;1.33;;;19.10;96.00;;;;;;6292490;28;20064;-79
2022/09/03 02:01:14;;;;;;;;;;;19.10;96.20;;;;;;6273188;28;20052;-78
2022/09/03 02:04:22;;;;;;;3.47;1.67;;;19.10;96.50;;;;;;6274029;28;19943;-79
2022/09/03 02:07:25;;;;;;;4.93;1.80;;;19.10;96.30;;;;;;6273360;28;20056;-78
2022/09/03 02:10:31;;;;;;;2.35;1.40;;;19.10;96.60;;;;;;6273850;28;20048;-79
2022/09/03 02:13:38;;;;;;;2.15;1.40;;;19.10;96.70;;;;;;6286167;28;20425;-79
2022/09/03 02:16:43;;;;;;;2.38;1.45;;;19.10;96.90;;;;;;6299572;28;20056;-78
2022/09/03 02:19:45;;;;;;;3.35;1.42;;;19.30;97.00;;;;;;6297559;28;20044;-79
2022/09/03 02:22:48;;;;;;;4.05;1.23;;;19.20;97.10;;;;;;6281937;28;20053;-79
2022/09/03 02:25:54;;;;;;;3.92;1.65;;;19.10;97.20;;;;;;6271803;28;20041;-79
2022/09/03 02:28:58;;;;;;;2.72;1.60;;;19.10;97.40;;;;;;6272420;28;20057;-79
2022/09/03 02:32:01;;;;;;;3.63;1.48;;;19.10;97.50;;;;;;6273475;28;20053;-78
2022/09/03 02:35:03;;;;;;;2.83;1.40;;;19.10;97.70;;;;;;6272944;28;20047;-79
2022/09/03 02:38:12;;;;;;;3.22;1.15;;;19.10;97.70;;;;;;6275686;28;20045;-79
2022/09/03 02:41:14;;;;;;;2.03;1.30;;;19.20;97.70;;;;;;6276727;28;20051;-79
2022/09/03 02:44:24;;;;;;;3.08;1.65;;;19.20;97.90;;;;;;6277628;28;20052;-79
2022/09/03 02:47:31;;;;;;;1.60;0.98;;;19.20;97.90;;;;;;6276103;28;20045;-78
2022/09/03 02:50:40;;;;;;;5.63;2.05;;;19.30;97.90;;;;;;6275724;28;20048;-79
2022/09/03 02:53:42;;;;;;;3.67;1.75;;;19.30;98.00;;;;;;6275754;28;20041;-79
2022/09/03 02:56:47;;;;;;;3.80;1.67;;;19.40;98.00;;;;;;6277090;28;20419;-79
2022/09/03 02:59:48;;;;;;;3.33;1.98;;;19.40;98.00;;;;;;6275336;28;20466;-80
2022/09/03 03:02:51;;;;;;;3.85;1.90;;;19.40;97.90;;;;;;6293408;28;20063;-78
2022/09/03 03:05:56;;;;;;;4.55;1.73;;;19.40;97.80;;;;;;6302189;28;20541;-81
2022/09/03 03:08:57;;;;;;;5.25;1.77;;;19.50;98.00;;;;;;6302639;28;20127;-80
2022/09/03 03:11:59;;;;;;;4.95;1.58;;;19.40;98.00;;;;;;6302313;28;20052;-81
2022/09/03 03:15:01;;;;;;;4.63;1.48;;;19.50;98.20;;;;;;6310491;28;20047;-80
2022/09/03 03:18:06;;;;;;;5.97;1.67;;;19.50;98.10;;;;;;6317520;28;20048;-80
2022/09/03 03:21:10;;;;;;;2.78;1.27;;;19.40;98.30;;;;;;6301390;28;20430;-80
2022/09/03 03:24:12;;;;;;;3.45;1.77;;;19.50;98.40;;;;;;6299741;28;20075;-78
2022/09/03 03:27:14;;;;;;;1.60;1.15;;;19.40;98.50;;;;;;6295798;28;20044;-80
2022/09/03 03:30:15;;;;;;;2.40;1.40;;;19.40;98.60;;;;;;6295830;28;20387;-79
2022/09/03 03:33:19;;;;;;;5.72;1.20;;;19.30;99.00;;;;;;6299423;28;20177;-79
2022/09/03 03:36:22;;;;;;;2.67;1.92;;;19.10;99.40;;;;;;6301370;28;20070;-80
2022/09/03 03:39:24;;;;;;;5.20;2.25;;;19.00;99.90;;;;;;6300097;28;20086;-78
2022/09/03 03:42:25;;;;;;;4.97;1.60;;;19.00;99.90;;;;;;6300848;28;20058;-80
2022/09/03 03:45:27;;;;;;;4.18;1.77;;;19.00;99.90;;;;;;6301327;28;20045;-80
2022/09/03 03:48:30;;;;;;;5.85;1.67;;;19.00;99.90;;;;;;6301753;28;20067;-80
2022/09/03 03:51:33;;;;;;;5.85;1.85;;;18.90;99.90;;;;;;6300711;28;20064;-79
2022/09/03 03:54:34;;;;;;;3.47;1.92;;;18.80;99.90;;;;;;6302344;28;20048;-80
2022/09/03 03:57:36;;;;;;;14.15;2.35;;;18.90;99.90;;;;;;6301742;28;20044;-81
2022/09/03 04:00:38;;;;;;;5.43;3.15;;;18.80;99.90;;;;;;6288597;28;20041;-80
2022/09/03 04:03:42;;;;;;;4.43;1.77;;;18.80;99.90;;;;;;6274888;28;20415;-80
2022/09/03 04:06:43;;;;;;;2.33;1.52;;;18.80;99.90;;;;;;6276346;28;20044;-81
2022/09/03 04:09:46;;;;;;;3.20;1.98;;;18.80;99.90;;;;;;6276222;28;20560;-80
2022/09/03 04:12:47;;;;;;;5.68;2.00;;;18.90;99.90;;;;;;6277324;28;20126;-81
2022/09/03 04:15:50;;;;;;;3.55;1.75;;;18.80;99.90;;;;;;6283816;28;20526;-80
2022/09/03 04:18:54;;;;;;;2.47;1.80;;;18.90;99.90;;;;;;6301188;28;20421;-81
2022/09/03 04:21:56;;;;;;;2.85;1.88;;;18.90;99.90;;;;;;6301545;28;20045;-81
2022/09/03 04:24:58;;;;;;;4.55;1.90;;;18.90;99.90;;;;;;6300615;28;20040;-81
2022/09/03 04:27:59;;;;;;;4.65;2.40;;;18.90;99.90;;;;;;6302375;28;20063;-79
2022/09/03 04:31:02;;;;;;;8.27;2.13;;;19.00;99.90;;;;;;6298991;28;20481;-79
2022/09/03 04:34:06;;;;;;;3.90;2.10;;;18.90;99.90;;;;;;6299258;28;20045;-79
2022/09/03 04:37:08;;;;;;;4.78;2.40;;;19.00;99.90;;;;;;6298511;28;20163;-79
2022/09/03 04:40:10;;;;;;;3.45;1.98;;;19.00;99.90;;;;;;6300303;28;20053;-79
2022/09/03 04:43:12;;;;;;;3.20;1.98;;;18.90;99.90;;;;;;6300071;28;20052;-79
2022/09/03 04:46:15;;;;;;;3.65;1.90;;;19.00;99.90;;;;;;6301099;28;20063;-81
2022/09/03 04:49:18;;;;;;;1.70;1.42;;;19.00;99.90;;;;;;6302473;28;20755;-79
2022/09/03 04:52:20;;;;;;;2.05;1.35;;;19.10;99.90;;;;;;6302800;28;20728;-81
2022/09/03 04:55:22;;;;;;;3.97;2.75;;;19.10;99.90;;;;;;6305533;28;20036;-81
2022/09/03 04:58:23;;;;;;;5.65;2.10;;;19.20;99.90;;;;;;6308841;28;20052;-81
2022/09/03 05:01:27;;;;;;;5.07;2.42;;;19.20;99.90;;;;;;6301100;28;20051;-80
2022/09/03 05:04:30;;;;;;;7.03;2.22;;;19.20;99.90;;;;;;6283550;28;20059;-80
2022/09/03 05:07:37;;;;;;;3.92;2.03;;;19.30;99.90;;;;;;6308344;28;20036;-78
2022/09/03 05:10:39;;;;;;;7.57;2.28;;;19.30;99.90;;;;;;6322706;28;20444;-81
2022/09/03 05:13:40;;;;;;;13.70;2.53;;;19.30;99.90;;;;;;6303576;28;20517;-81
2022/09/03 05:16:42;;;;;;;5.97;1.80;;;19.30;99.90;;;;;;6304558;28;20052;-79
2022/09/03 05:19:45;;;;;;;9.73;2.72;;;19.30;99.90;;;;;;6303992;28;20056;-80
2022/09/03 05:22:47;;;;;;;10.45;2.28;;;19.40;99.90;;;;;;6304003;28;20044;-80
2022/09/03 05:25:57;;;;;;;3.42;2.13;;;19.40;99.90;;;;;;6304205;28;20052;-81
2022/09/03 05:29:00;;;;;;;3.78;2.17;;;19.50;99.90;;;;;;6303736;28;20105;-80
2022/09/03 05:32:03;;;;;;;3.22;1.95;;;19.60;99.90;;;;;;6303881;28;20067;-80
2022/09/03 05:35:09;;;;;;;7.65;2.00;;;19.60;99.90;;;;;;6303995;28;20517;-80
2022/09/03 05:38:11;;;;;;;4.93;3.35;;;19.70;99.90;;;;;;6305009;28;20055;-81
2022/09/03 05:41:14;;;;;;;5.07;1.75;;;19.80;99.90;;;;;;6305601;28;20044;-81
2022/09/03 05:44:16;;;;;;;1.85;1.63;;;20.00;99.90;;;;;;6304641;28;20049;-81
2022/09/03 05:47:18;;;;;;;5.47;2.53;;;20.10;99.90;;;;;;6304989;28;20044;-82
2022/09/03 05:50:21;;;;;;;2.70;1.83;;;20.10;99.90;;;;;;6304396;28;20049;-82
2022/09/03 05:53:22;;;;;;;5.32;2.05;;;20.10;99.90;;;;;;6303952;28;20040;-79
2022/09/03 05:56:26;;;;;;;4.32;2.03;;;20.20;99.90;;;;;;6303153;28;20041;-79
2022/09/03 05:59:27;;;;;;;3.67;2.00;;;20.20;99.90;;;;;;6305073;28;20051;-82
2022/09/03 06:02:29;;;;;;;7.85;2.17;;;20.30;99.90;;;;;;6293378;28;20048;-79
2022/09/03 06:05:32;;;;;;;7.13;2.00;;;20.40;99.90;;;;;;6276905;28;20049;-78
2022/09/03 06:08:34;;;;;;;4.80;2.03;;;20.40;99.90;;;;;;6277791;28;20049;-79
2022/09/03 06:11:38;;;;;;;6.03;1.85;;;20.60;99.90;;;;;;6275323;28;20045;-79
2022/09/03 06:14:40;;;;;;;5.80;1.88;;;20.60;99.90;;;;;;6286192;28;20048;-80
2022/09/03 06:17:42;;;;;;;5.35;2.00;;;20.60;99.90;;;;;;6262258;28;20044;-79
2022/09/03 06:20:54;;;;;;;4.43;2.08;;;20.60;99.90;;;;;;6278438;28;20529;-78
2022/09/03 06:23:57;;;;;;;4.47;1.70;;;20.60;99.90;;;;;;6268227;28;20056;-78
2022/09/03 06:27:00;;;;;;;6.80;1.83;;;20.50;99.90;;;;;;6274328;28;20108;-79
2022/09/03 06:30:02;;;;;;;4.13;1.58;;;20.40;99.90;;;;;;6295951;28;20055;-79
2022/09/03 06:33:04;;;;;;;4.47;1.90;;;20.00;99.90;;;;;;6298586;28;20048;-79
2022/09/03 06:36:09;;;;;;;8.43;2.30;;;19.90;99.90;;;;;;6297711;28;20048;-79
2022/09/03 06:39:10;;;;;;;4.70;2.55;;;19.80;99.90;;;;;;6296505;28;20040;-79
2022/09/03 06:42:12;;;;;;;2.45;1.90;;;19.80;99.90;;;;;;6296336;28;20414;-78
2022/09/03 06:45:15;;;;;;;5.38;2.45;;;19.70;99.90;;;;;;6295549;28;20131;-79
2022/09/03 06:48:17;;;;;;;4.43;2.97;;;19.80;99.90;;;;;;6295855;28;20133;-80
2022/09/03 06:51:22;;;;;;;4.35;2.90;;;19.90;99.90;;;;;;6270879;28;20048;-78
2022/09/03 06:54:24;;;;;;;6.53;2.42;;;20.00;99.90;;;;;;6270873;28;20051;-79
2022/09/03 06:57:26;;;;;;;7.07;2.28;;;20.20;99.90;;;;;;6270396;28;20048;-79
2022/09/03 07:00:27;;;;;;;2.65;2.35;;;20.40;99.90;;;;;;6270942;28;20049;-79
2022/09/03 07:03:29;;;;;;;8.18;2.45;;;20.70;99.90;;;;;;6270042;28;20136;-78
2022/09/03 07:06:37;;;;;;;6.45;2.85;;;20.90;99.90;;;;;;6284010;28;20532;-78
2022/09/03 07:09:39;;;;;;;6.40;2.33;;;21.00;99.90;;;;;;6289546;28;20041;-79
2022/09/03 07:12:41;;;;;;;6.20;3.15;;;21.10;99.90;;;;;;6271290;28;20426;-78
2022/09/03 07:15:42;;;;;;;6.05;3.33;;;21.00;99.90;;;;;;6269833;28;20395;-80
2022/09/03 07:18:45;;;;;;;5.97;3.50;;;20.90;99.90;;;;;;6271154;28;20138;-79
2022/09/03 07:21:48;;;;;;;5.43;3.10;;;20.80;99.90;;;;;;6271578;28;20090;-78
2022/09/03 07:24:51;;;;;;;8.25;3.50;;;20.80;99.90;;;;;;6272375;28;20049;-78
2022/09/03 07:27:53;;;;;;;8.68;2.80;;;20.80;99.90;;;;;;6272073;28;20053;-79
2022/09/03 07:31:00;;;;;;;6.72;3.33;;;20.80;99.90;;;;;;6271373;28;20079;-79
2022/09/03 07:34:04;;;;;;;4.32;3.17;;;20.70;99.90;;;;;;6271259;28;20052;-79
2022/09/03 07:37:08;;;;;;;4.45;2.70;;;20.70;99.90;;;;;;6273134;28;20411;-79
2022/09/03 07:40:10;;;;;;;4.65;3.35;;;20.60;99.90;;;;;;6295833;28;20057;-79
2022/09/03 07:43:12;;;;;;;6.85;3.95;;;20.50;99.90;;;;;;6276151;28;20052;-79
2022/09/03 07:46:22;;;;;;;4.47;3.40;;;20.40;99.90;;;;;;6282284;28;20048;-78
2022/09/03 07:49:24;;;;;;;4.50;3.33;;;20.40;99.90;;;;;;6292222;28;20044;-79
2022/09/03 07:52:27;;;;;;;9.70;4.00;;;20.40;99.90;;;;;;6273599;28;20388;-79
2022/09/03 07:55:28;;;;;;;4.93;3.75;;;20.40;99.90;;;;;;6273181;28;20048;-79
2022/09/03 07:58:31;;;;;;;4.90;3.17;;;20.30;99.90;;;;;;6273029;28;20056;-79
2022/09/03 08:01:34;;;;;;;5.55;3.53;;;20.40;99.90;;;;;;6273057;28;20048;-79
2022/09/03 08:04:37;;;;;;;5.18;3.55;;;20.40;99.90;;;;;;6272380;28;20041;-79
2022/09/03 08:07:40;;;;;;;6.28;4.03;;;20.50;99.90;;;;;;6294258;28;20044;-79
2022/09/03 08:10:42;;;;;;;5.80;3.90;;;20.40;99.90;;;;;;6310279;28;20539;-79
2022/09/03 08:13:46;;;;;;;6.22;4.35;;;20.20;99.90;;;;;;6316042;28;20067;-80
2022/09/03 08:16:48;;;;;;;6.30;3.97;;;20.10;99.90;;;;;;6298574;28;20049;-80
2022/09/03 08:19:50;;;;;;;8.27;3.97;;;20.00;99.90;;;;;;6285464;28;20041;-80
2022/09/03 08:22:53;;;;;;;8.13;3.75;;;19.80;99.90;;;;;;6273240;28;20049;-80
2022/09/03 08:25:59;;;;;;;7.30;4.68;;;19.50;99.90;;;;;;6283388;28;20032;-80
2022/09/03 08:29:00;;;;;;;5.75;4.03;;;19.30;99.90;;;;;;6302045;28;20051;-80
2022/09/03 08:32:04;;;;;;;7.10;4.53;;;19.30;99.90;;;;;;6303508;28;20052;-79
2022/09/03 08:35:08;;;;;;;7.22;5.47;;;19.10;99.90;;;;;;6312779;28;20040;-79
2022/09/03 08:38:11;;;;;;;12.95;6.00;;;19.00;99.90;;;;;;6318683;28;20045;-80
2022/09/03 08:41:16;;;;;;;8.90;5.20;;;19.00;99.90;;;;;;6302889;28;20647;-80
2022/09/03 08:44:24;;;;;;;10.30;5.88;;;19.10;99.90;;;;;;6305362;28;20052;-80
2022/09/03 08:47:32;;;;;;;8.40;5.55;;;19.30;99.90;;;;;;6302895;28;20079;-80
2022/09/03 08:50:40;;;;;;;8.10;5.70;;;19.60;99.90;;;;;;6284774;28;20068;-80
2022/09/03 08:53:47;;;;;;;7.95;5.00;;;19.90;99.90;;;;;;6279742;28;20056;-80
2022/09/03 08:56:51;;;;;;;6.47;5.25;;;20.10;99.90;;;;;;6295429;28;20406;-80
2022/09/03 08:59:55;;;;;;;6.55;4.88;;;20.30;99.90;;;;;;6302844;28;20425;-80
2022/09/03 09:03:12;;;;;;;6.80;4.07;;;20.40;99.90;;;;;;6303400;28;20072;-80
2022/09/03 09:06:21;;;;;;;4.55;3.85;;;20.50;99.90;;;;;;6280533;28;20052;-80
2022/09/03 09:09:31;;;;;;;13.40;5.30;;;20.40;99.90;;;;;;6293477;28;20056;-80
2022/09/03 09:12:41;;;;;;;5.45;3.97;;;20.40;99.90;;;;;;6303246;28;20055;-80
2022/09/03 09:15:51;;;;;;;6.18;4.55;;;20.40;99.90;;;;;;6301881;28;20051;-80
2022/09/03 09:19:03;;;;;;;6.75;3.50;;;20.40;99.90;;;;;;6297863;28;20438;-81
2022/09/03 09:22:10;;;;;;;9.35;4.25;;;20.50;99.90;;;;;;6272049;28;20045;-81
2022/09/03 09:25:17;;;;;;;7.80;4.35;;;20.30;99.90;;;;;;6284963;28;20063;-81
2022/09/03 09:28:21;;;;;;;6.47;4.10;;;20.40;99.90;;;;;;6284473;28;20075;-82
2022/09/03 09:31:22;;;;;;;6.30;4.57;;;20.60;99.90;;;;;;6282889;28;20048;-82
2022/09/03 09:34:24;;;;;;;10.30;4.95;;;20.80;99.90;;;;;;6282445;28;20041;-82
2022/09/03 09:37:27;;;;;;;9.15;5.10;;;21.10;99.90;;;;;;6280980;28;20043;-80
2022/09/03 09:40:33;;;;;;;5.60;4.57;;;21.50;99.90;;;;;;6281754;28;20055;-81
2022/09/03 09:43:35;;;;;;;5.40;3.90;;;21.90;99.90;;;;;;6279391;28;20503;-81
2022/09/03 09:46:39;;;;;;;5.13;3.22;;;22.20;99.90;;;;;;6279932;28;20052;-81
2022/09/03 09:49:52;;;;;;;4.55;2.72;;;22.40;99.90;;;;;;6281832;28;20041;-81
2022/09/03 09:53:04;;;;;;;6.53;4.63;;;22.70;99.90;;;;;;6274330;28;20051;-81
2022/09/03 09:56:08;;;;;;;9.70;5.63;;;23.00;99.90;;;;;;6283556;28;20491;-81
2022/09/03 09:59:12;;;;;;;4.50;2.60;;;23.40;99.90;;;;;;6280633;28;20345;-82
2022/09/03 10:02:19;;;;;;;3.08;2.00;;;23.80;99.90;;;;;;6278563;28;20064;-81
2022/09/03 10:05:24;;;;;;;2.17;1.55;;;24.20;99.90;;;;;;6278398;28;20040;-81
2022/09/03 10:08:25;;;;;;;2.75;1.83;;;24.50;99.90;;;;;;6273828;28;20051;-81
2022/09/03 10:11:29;;;;;;;3.05;1.77;;;24.80;99.90;;;;;;6277349;28;20553;-81
2022/09/03 10:14:37;;;;;;;5.00;1.77;;;25.10;99.90;;;;;;6278710;28;20053;-82
2022/09/03 10:17:52;;;;;;;2.78;1.60;;;25.40;99.90;;;;;;6277978;28;20048;-80
2022/09/03 10:21:03;;;;;;;2.10;1.35;;;25.80;99.90;;;;;;6277544;28;20055;-80
2022/09/03 10:24:40;;;;;;;2.22;1.33;;;25.90;99.90;;;;;;6277789;28;20079;-79
2022/09/03 10:27:45;;;;;;;4.70;1.30;;;25.80;99.90;;;;;;6278303;28;20037;-82
2022/09/03 10:30:59;;;;;;;3.22;1.90;;;25.80;99.90;;;;;;6279855;28;20052;-81
2022/09/03 10:34:06;;;;;;;6.70;2.33;;;25.80;99.90;;;;;;6278556;28;20037;-80
2022/09/03 10:37:18;;;;;;;7.47;1.85;;;25.90;99.90;;;;;;6279421;28;20049;-81
2022/09/03 10:40:30;;;;;;;4.35;1.65;;;26.00;99.90;;;;;;6279194;28;20053;-82
2022/09/03 10:43:57;;;;;;;1.70;1.40;;;26.10;99.90;;;;;;6284886;28;20059;-81
2022/09/03 10:47:11;;;;;;;4.57;1.98;;;26.00;99.90;;;;;;6304069;28;20053;-79
2022/09/03 10:50:17;;;;;;;2.85;1.88;;;25.80;99.90;;;;;;6287098;28;20045;-81
2022/09/03 10:53:33;;;;;;;3.30;1.98;;;25.70;99.90;;;;;;6277665;28;20041;-81
2022/09/03 10:56:48;;;;;;;3.53;1.60;;;25.50;99.90;;;;;;6278615;28;20059;-81
2022/09/03 11:00:03;;;;;;;1.45;1.20;;;25.40;99.90;;;;;;6277823;28;20040;-82
2022/09/03 11:03:30;;;;;;;5.55;1.95;;;25.20;99.90;;;;;;6277736;28;20513;-81
2022/09/03 11:06:41;;;;;;;5.50;2.20;;;25.10;99.90;;;;;;6277683;28;20048;-82
2022/09/03 11:09:49;;;;;;;5.05;1.73;;;25.10;99.90;;;;;;6282098;28;20440;-81
2022/09/03 11:13:02;;;;;;;3.67;1.85;;;25.30;99.90;;;;;;6301904;28;20631;-80
2022/09/03 11:16:11;;;;;;;2.05;1.85;;;25.30;99.90;;;;;;6276028;28;20059;-81
2022/09/03 11:19:17;;;;;;;3.15;1.38;;;25.70;99.90;;;;;;6297325;28;20048;-78
2022/09/03 11:22:21;;;;;;;2.05;1.42;;;26.30;99.90;;;;;;6306338;28;20072;-82
2022/09/03 11:25:30;;;;;;;1.58;1.13;;;26.70;99.90;;;;;;6305803;28;20048;-81
2022/09/03 11:28:43;;;;;;;3.58;1.65;;;27.20;99.40;;;;;;6305976;28;20083;-83
2022/09/03 11:31:56;;;;;;;6.70;2.00;;;27.60;97.80;;;;;;6281290;28;20059;-81
2022/09/03 11:34:58;;;;;;;2.45;1.50;;;27.80;96.70;;;;;;6296794;28;20055;-80
2022/09/03 11:38:02;;;;;;;2.65;1.60;;;27.90;94.60;;;;;;6293799;28;20044;-81
2022/09/03 11:41:13;;;;;;;3.20;1.67;;;27.70;95.60;;;;;;6278368;28;20055;-82
2022/09/03 11:44:18;;;;;;;2.92;1.10;;;27.90;95.10;;;;;;6279323;28;20088;-82
2022/09/03 11:47:38;;;;;;;3.55;1.67;;;28.40;94.60;;;;;;6277663;28;20045;-81
2022/09/03 11:50:51;;;;;;;1.65;1.50;;;28.70;92.50;;;;;;6278154;28;20118;-82
2022/09/03 11:53:58;;;;;;;3.17;1.73;;;29.10;92.40;;;;;;6278579;28;20049;-81
2022/09/03 11:57:11;;;;;;;2.00;1.33;;;29.40;91.10;;;;;;6277684;28;20045;-82
2022/09/03 12:00:17;;;;;;;1.98;1.38;;;29.60;91.50;;;;;;6277577;28;20315;-82
2022/09/03 12:03:26;;;;;;;12.77;9.73;;;30.00;90.70;;;;;;6277258;28;20114;-80
2022/09/03 12:06:55;;;;;;;7.38;4.43;;;30.10;89.30;;;;;;6279625;28;20045;-82
2022/09/03 12:10:23;;;;;;;5.05;2.08;;;30.10;88.90;;;;;;6285881;28;20043;-82
2022/09/03 12:13:35;;;;;;;2.00;1.40;;;30.10;86.90;;;;;;6303838;28;20079;-82
2022/09/03 12:16:51;;;;;;;4.85;1.15;;;30.30;85.70;;;;;;6305276;28;20051;-83
2022/09/03 12:19:56;;;;;;;2.88;1.35;;;30.50;85.40;;;;;;6303847;28;20044;-82
2022/09/03 12:22:57;;;;;;;1.83;1.13;;;30.80;83.30;;;;;;6295304;28;20056;-81
2022/09/03 12:26:03;;;;;;;2.25;1.17;;;31.20;80.60;;;;;;6294309;28;20125;-82
2022/09/03 12:29:06;;;;;;;1.23;1.00;;;31.50;78.40;;;;;;6279950;28;20509;-82
2022/09/03 12:32:11;;;;;;;2.22;1.10;;;31.70;76.10;;;;;;6303815;28;20059;-81
2022/09/03 12:35:17;;;;;;;2.03;1.50;;;31.60;74.50;;;;;;6283546;28;20041;-82
2022/09/03 12:38:23;;;;;;;3.20;1.40;;;31.70;74.30;;;;;;6279097;28;20060;-83
2022/09/03 12:41:27;;;;;;;1.52;0.98;;;31.80;73.80;;;;;;6279916;28;20042;-82
2022/09/03 12:44:32;;;;;;;4.38;0.82;;;31.80;71.90;;;;;;6302631;28;20140;-82
2022/09/03 12:47:39;;;;;;;1.15;0.77;;;31.40;64.70;;;;;;6304098;28;20059;-82
2022/09/03 12:50:43;;;;;;;3.65;0.80;;;30.80;65.90;;;;;;6284199;28;20067;-80
2022/09/03 12:53:45;;;;;;;2.85;1.20;;;30.50;67.10;;;;;;6302214;28;20048;-81
2022/09/03 12:56:56;;;;;;;4.07;0.85;;;30.30;68.50;;;;;;6302281;28;20044;-82
2022/09/03 13:00:01;;;;;;;2.67;1.08;;;29.90;69.10;;;;;;6326596;28;20050;-81
2022/09/03 13:03:06;;;;;;;6.15;1.08;;;29.40;70.30;;;;;;6307858;28;20164;-82
2022/09/03 13:06:13;;;;;;;2.83;1.27;;;29.00;72.80;;;;;;6302646;28;20050;-81
2022/09/03 13:09:16;;;;;;;1.58;1.00;;;28.70;74.00;;;;;;6294494;28;20055;-79
2022/09/03 13:12:23;;;;;;;1.25;1.00;;;28.30;74.00;;;;;;6275679;28;20053;-82
2022/09/03 13:15:26;;;;;;;4.05;1.38;;;27.80;75.60;;;;;;6278713;28;20049;-82
2022/09/03 13:18:33;;;;;;;1.50;0.90;;;27.70;75.80;;;;;;6280540;28;20045;-81
2022/09/03 13:21:46;;;;;;;5.40;0.30;;;27.60;73.70;;;;;;6287063;28;20076;-82
2022/09/03 13:25:02;;;;;;;0.98;0.30;;;27.90;71.70;;;;;;6306199;28;20044;-82
2022/09/03 13:28:21;;;;;;;0.28;0.17;;;28.10;68.60;;;;;;6306247;28;20048;-82
2022/09/03 13:31:30;;;;;;;5.88;0.20;;;28.40;67.60;;;;;;6283983;28;20052;-81
2022/09/03 13:34:37;;;;;;;1.10;0.20;;;28.50;67.20;;;;;;6283362;28;20076;-81
2022/09/03 13:37:45;;;;;;;2.30;0.20;;;28.80;66.20;;;;;;6283435;28;20391;-81
2022/09/03 13:40:52;;;;;;;0.10;0.10;;;28.90;65.30;;;;;;6282197;28;20139;-81
2022/09/03 13:44:03;;;;;;;0.22;0.10;;;29.20;64.90;;;;;;6280834;28;20049;-81
2022/09/03 13:47:10;;;;;;;1.45;0.20;;;29.40;64.30;;;;;;6282144;28;20049;-83
2022/09/03 13:50:25;;;;;;;0.85;0.28;;;29.50;63.30;;;;;;6280683;28;20498;-82
2022/09/03 13:53:37;;;;;;;1.23;0.20;;;29.70;63.80;;;;;;6277911;28;20175;-80
2022/09/03 13:56:56;;;;;;;0.40;0.10;;;29.80;63.20;;;;;;6271287;28;20052;-80
2022/09/03 14:00:05;;;;;;;0.82;0.20;;;29.80;62.70;;;;;;6269162;28;20055;-81
2022/09/03 14:03:13;;;;;;;0.60;0.30;;;29.90;61.30;;;;;;6295172;28;20060;-80
2022/09/03 14:06:25;;;;;;;2.35;0.30;;;29.80;60.60;;;;;;6302257;28;20044;-81
2022/09/03 14:09:35;;;;;;;3.00;0.50;;;30.00;61.00;;;;;;6315375;28;20040;-81
2022/09/03 14:12:45;;;;;;;0.45;0.20;;;30.50;59.90;;;;;;6275747;28;20115;-81
2022/09/03 14:15:51;;;;;;;0.20;0.00;;;30.70;57.80;;;;;;6276387;28;20503;-81
2022/09/03 14:18:58;;;;;;;0.22;0.10;;;30.80;55.40;;;;;;6276913;28;20059;-80
2022/09/03 14:22:07;;;;;;;0.28;0.10;;;30.60;55.70;;;;;;6269785;28;20159;-81
2022/09/03 14:25:15;;;;;;;0.82;0.22;;;30.40;57.20;;;;;;6276237;28;20052;-80
2022/09/03 14:28:31;;;;;;;0.00;0.00;;;30.30;57.30;;;;;;6277450;28;20049;-80
2022/09/03 14:31:58;;;;;;;0.98;0.30;;;29.90;57.90;;;;;;6297309;28;20048;-80
2022/09/03 14:35:18;;;;;;;3.20;0.40;;;29.60;58.30;;;;;;6300424;28;20049;-79
2022/09/03 14:39:08;;;;;;;2.65;0.25;;;29.20;59.40;;;;;;6300504;28;20049;-80
2022/09/03 14:42:43;;;;;;;1.08;0.28;;;28.80;60.60;;;;;;6300840;28;20048;-80
2022/09/03 14:46:12;;;;;;;2.20;0.60;;;28.30;62.10;;;;;;6317760;28;20047;-80
2022/09/03 14:49:45;;;;;;;2.20;0.38;;;28.10;63.10;;;;;;6297980;28;20041;-81
2022/09/03 14:53:10;;;;;;;0.20;0.10;;;27.90;63.30;;;;;;6282405;28;20055;-81
2022/09/03 14:56:25;;;;;;;5.93;0.30;;;27.60;63.60;;;;;;6281751;28;20052;-80
2022/09/03 15:00:05;;;;;;;1.63;0.82;;;27.30;63.60;;;;;;6279573;28;20370;-80
2022/09/03 15:03:23;;;;;;;2.55;0.30;;;26.80;64.80;;;;;;6275907;28;20049;-81
2022/09/03 15:06:39;;;;;;;0.40;0.10;;;26.50;66.70;;;;;;6278147;28;20048;-79
2022/09/03 15:09:46;;;;;;;0.80;0.40;;;26.30;67.60;;;;;;6277734;28;20037;-81
2022/09/03 15:12:51;;;;;;;1.33;0.40;;;26.20;69.00;;;;;;6276809;28;20500;-79
2022/09/03 15:16:12;;;;;;;0.55;0.30;;;26.20;69.20;;;;;;6279383;28;20299;-79
2022/09/03 15:19:33;;;;;;;1.50;0.50;;;26.10;69.50;;;;;;6296888;28;20044;-79
2022/09/03 15:22:53;;;;;;;3.03;0.30;;;26.00;69.90;;;;;;6301923;28;20040;-82
2022/09/03 15:26:29;;;;;;;1.90;0.40;;;25.70;70.40;;;;;;6302694;28;20041;-81
2022/09/03 15:29:45;;;;;;;1.33;0.65;;;25.60;71.20;;;;;;6296091;28;20049;-80
2022/09/03 15:33:05;;;;;;;4.25;0.80;;;25.60;71.70;;;;;;6277499;28;20049;-81
2022/09/03 15:36:17;;;;;;;2.08;0.57;;;25.40;72.40;;;;;;6276238;28;20060;-82
2022/09/03 15:39:24;;;;;;;2.75;0.20;;;25.30;73.00;;;;;;6278161;28;20056;-81
2022/09/03 15:42:28;;;;;;;2.08;0.30;;;25.20;73.40;;;;;;6277386;28;20300;-81
2022/09/03 15:45:36;;;;;;;0.35;0.20;;;25.10;74.00;;;;;;6277814;28;20041;-81
2022/09/03 15:48:45;;;;;;;;;;;25.00;74.20;;;;;;6278325;28;20045;-81
2022/09/03 15:51:58;;;;;;;0.82;0.17;;;25.00;75.10;;;;;;6277324;28;20397;-80
2022/09/03 15:55:09;;;;;;;0.65;0.30;;;25.00;75.60;;;;;;6277085;28;20636;-81
2022/09/03 15:58:24;;;;;;;2.28;0.57;;;25.00;76.20;;;;;;6277540;28;20051;-79
2022/09/03 16:01:46;;;;;;;0.77;0.15;;;25.00;76.70;;;;;;6276617;28;20048;-79
2022/09/03 16:05:04;;;;;;;1.90;0.40;;;25.10;77.20;;;;;;6277313;28;20053;-80
2022/09/03 16:08:19;;;;;;;0.38;0.25;;;25.10;77.80;;;;;;6275172;28;20053;-81
2022/09/03 16:11:32;;;;;;;7.53;0.32;;;25.10;77.20;;;;;;6274993;28;20525;-82
2022/09/03 16:14:38;;;;;;;0.35;0.22;;;24.90;77.40;;;;;;6269572;28;20064;-81
2022/09/03 16:17:50;;;;;;;0.75;0.35;;;24.90;78.20;;;;;;6273137;28;20694;-84